createdAt,value
2018-11-29T21:29:07.713Z,11.37
2018-11-29T21:31:37.115Z,10.50
2018-11-29T21:34:06.363Z,10.80
2018-11-29T21:36:35.502Z,11.87
2018-11-29T21:39:05.943Z,9.90
2018-11-29T21:41:35.115Z,12.07
2018-11-29T21:44:04.314Z,11.40
2018-11-29T21:46:33.494Z,12.13
2018-11-29T21:49:02.617Z,10.97
2018-11-29T21:51:31.771Z,11.00
2018-11-29T21:54:00.993Z,11.47
2018-11-29T21:56:30.156Z,10.97
2018-11-29T21:58:59.292Z,11.40
2018-11-29T22:01:28.461Z,10.43
2018-11-29T22:03:57.642Z,11.07
2018-11-29T22:06:26.817Z,12.20
2018-11-29T22:08:55.963Z,10.53
2018-11-29T22:11:25.133Z,11.03
2018-11-29T22:13:54.348Z,11.10
2018-11-29T22:16:23.515Z,10.60
2018-11-29T22:18:52.714Z,12.03
2018-11-29T22:21:21.903Z,11.23
2018-11-29T22:23:51.064Z,12.70
2018-11-29T22:26:20.263Z,12.30
2018-11-29T22:28:49.396Z,11.53
2018-11-29T22:31:18.587Z,11.53
2018-11-29T22:33:47.778Z,11.77
2018-11-29T22:36:16.939Z,11.90
2018-11-29T22:38:46.117Z,11.83
2018-11-29T22:41:15.274Z,12.80
2018-11-29T22:43:44.448Z,12.50
2018-11-29T22:46:13.604Z,13.73
2018-11-29T22:48:42.764Z,11.80
2018-11-29T22:51:11.911Z,12.73
2018-11-29T22:53:41.151Z,13.23
2018-11-29T22:56:10.334Z,12.40
2018-11-29T22:58:39.493Z,13.03
2018-11-29T23:01:13.926Z,12.90
2018-11-29T23:03:43.248Z,12.67
2018-11-29T23:06:12.400Z,13.87
2018-11-29T23:08:41.564Z,14.17
2018-11-29T23:11:10.736Z,13.57
2018-11-29T23:13:39.902Z,13.23
2018-11-29T23:16:09.106Z,14.40
2018-11-29T23:18:38.262Z,14.07
2018-11-29T23:21:07.451Z,13.70
2018-11-29T23:23:36.622Z,13.70
2018-11-29T23:26:06.392Z,12.63
2018-11-29T23:28:35.566Z,13.07
2018-11-29T23:31:04.814Z,13.70
2018-11-29T23:33:33.995Z,14.10
2018-11-29T23:36:03.177Z,13.90
2018-11-29T23:38:32.346Z,15.00
2018-11-29T23:41:01.496Z,15.43
2018-11-29T23:43:30.645Z,14.50
2018-11-29T23:45:59.849Z,13.33
2018-11-29T23:48:28.997Z,14.13
2018-11-29T23:50:58.167Z,14.20
2018-11-29T23:53:27.330Z,14.77
2018-11-29T23:55:56.493Z,15.10
2018-11-29T23:58:25.807Z,13.50
